Create Custom Reports and Graphics: Custom Report

Robertsbridge Vineyards

Current Conditions

1/29/23 12:00 PM (-08:00)
Updated Every 15 Minutes
Temp 44.2 °F   8.5
RH 51 %   1
Dew Pt 27.1 °F   8.5
Wet Bulb 37.4 °F   7.4
Daily Min Temp 26.9 °F   1.2
Daily Max Temp 46.9 °F   6.6
Yest MinT 25.7 °F
Yest MaxT 57.7 °F
BatVolt 14.0 V   0.2

Last 30 Days

Robertsbridge Vineyards

Daily Data | America/Los_Angeles
as of 1/29/23 12:07 PM PST
Date Daily Max Temp (°F) Time of Max Temp Daily Min Temp (°F) Time of Min Temp Dew Pt (°F) Max RH (%) Min RH (%) Hrs <= 32F (hrs) Hrs <= 28F (hrs) Hrs 70-85F (hrs) Hrs > 95F (hrs) Powdery Mildew Stress (pts) GDDs (DL) GDDs (Mx/Mn) Chilling <=45F (hrs) MinBV Day (V)
1/28/23 57.7 1306 25.7 0710 30.7 98 30 9.9 1.6 0.00 0.00 0 1.1 0.0 15.8 12.5
1/27/23 66.5 1334 29.4 0520 31.5 92 22 3.7 0.0 0.00 0.00 0 3.5 0.0 13.6 12.5
1/26/23 69.6 1349 34.7 2358 28.9 87 17 0.0 0.0 0.00 0.00 0 5.7 2.2 5.5 12.6
1/25/23 69.8 1335 28.9 0624 25.8 89 16 3.7 0.0 0.00 0.00 0 6.5 0.0 8.7 12.5
1/24/23 69.8 1328 30.8 0724 26.4 78 13 0.6 0.0 0.00 0.00 0 4.6 0.3 11.7 12.6
1/23/23 64.4 1344 40.4 1954 15.8 59 8 0.0 0.0 0.00 0.00 0 3.1 2.4 5.3 12.6
1/22/23 53.6 1440 28.9 0410 27.3 100 20 5.8 0.0 0.00 0.00 0 0.4 0.0 13.9 12.6
1/21/23 55.8 1444 24.9 0625 26.7 93 27 8.5 7.8 0.00 0.00 0 0.8 0.0 17.6 12.5
1/20/23 52.7 1446 26.8 0001 21.4 88 19 11.9 2.4 0.00 0.00 0 0.2 0.0 16.9 12.5
1/19/23 49.5 1323 27.5 0730 30.8 100 37 12.9 0.7 0.00 0.00 0 0.0 0.0 19.6 12.5
1/18/23 49.3 1320 27.0 0731 34.5 100 55 8.4 0.6 0.00 0.00 0 0.0 0.0 15.3 12.5
1/17/23 50.1 1347 26.2 0729 30.8 100 39 10.7 4.4 0.00 0.00 0 0.0 0.0 18.8 12.4
1/16/23 46.9 1351 29.5 0001 35.7 100 62 3.5 0.0 0.00 0.00 0 0.0 0.0 19.3 12.5
1/15/23 47.6 1401 38.1 0339 40.1 100 73 0.0 0.0 0.00 0.00 0 0.0 0.0 19.6 12.5
1/14/23 52.3 0750 38.4 2140 43.4 100 75 0.0 0.0 0.00 0.00 0 0.1 0.0 6.8 12.6
1/13/23 54.8 1252 46.8 0706 45.7 97 66 0.0 0.0 0.00 0.00 0 0.5 0.8 0.0 12.7
1/12/23 59.5 1345 47.8 0012 44.2 95 48 0.0 0.0 0.00 0.00 0 3.7 3.7 0.0 12.5
1/11/23 48.0 2353 42.0 0038 43.1 96 85 0.0 0.0 0.00 0.00 0 0.0 0.0 13.2 12.5
1/10/23 47.3 1502 40.0 1752 41.0 97 77 0.0 0.0 0.00 0.00 0 0.0 0.0 13.5 12.6
1/9/23 55.1 1336 39.2 1914 44.6 100 51 0.0 0.0 0.00 0.00 0 1.3 0.0 4.9 12.7
1/8/23 53.2 1248 44.8 0738 42.0 93 52 0.0 0.0 0.00 0.00 0 0.4 0.0 0.1 12.4
1/7/23 47.8 0033 43.8 0507 40.6 96 66 0.0 0.0 0.00 0.00 0 0.0 0.0 12.6 12.6
1/6/23 50.3 1453 40.3 0001 43.6 100 75 0.0 0.0 0.00 0.00 0 0.0 0.0 7.8 12.4
1/5/23 50.7 0151 34.4 2122 42.2 100 74 0.0 0.0 0.00 0.00 0 0.0 0.0 7.1 12.5
1/4/23 53.0 1803 41.7 0035 44.0 95 75 0.0 0.0 0.00 0.00 0 0.6 0.0 11.4 12.5
1/3/23 43.6 2229 35.1 0058 37.9 97 89 0.0 0.0 0.00 0.00 0 0.0 0.0 24.0 12.5
1/2/23 43.4 1214 32.0 0650 30.6 96 48 0.0 0.0 0.00 0.00 0 0.0 0.0 24.0 12.6
1/1/23 57.2 1450 28.9 0752 30.6 100 12 6.8 0.0 0.00 0.00 0 1.0 0.0 17.0 12.4
12/31/22 52.9 0001 34.3 2354 45.4 100 77 0.0 0.0 0.00 0.00 0 0.3 0.0 6.0 12.4
12/30/22 58.9 1115 44.6 0003 51.9 100 87 0.0 0.0 0.00 0.00 0 4.2 1.7 2.0 12.5
Max 69.8 - 47.8 - 51.9 100 89 12.9 7.8 0.00 0.00 - 6.5 3.7 24.0 12.7
Avg - - - - 35.9 - - 2.9 0.6 0.00 0.00 - 1.3 0.4 11.7 -
Min 43.4 - 24.9 - 15.8 59 8 0.0 0.0 0.00 0.00 - 0.0 0.0 0.0 12.4
Total - - - - - - - 86.4 17.6 0.00 0.00 - 38.2 11.0 352.0 -